Flugplatz Lübeck Blankensee

Bericht für EDHL

vom 23.05. um 18:50 UTC

Wind 3 kt aus 170°

Sichtweite 10 km oder mehr

gute Sicht, keine Wolken < 5000 ft, keine CB, keine Wettererscheinungen (CAVOK)

Temperatur 17.0°C

Taupunkt 7.0°C

Luftfeuchtigkeit 52%

Luftdruck 1015 hPa

EDHL 231850Z 17003KT CAVOK 17/07 Q1015

Prognose für EDHL

vom 23.05. um 17:00 UTC

Zwischen 18:00 UTC und 21:00 UTC

Wind 4 kt aus 200°

Sichtweite 10 km oder mehr

keine signifikanten Wettererscheinungen

keine Wolken

TAF EDHL 231700Z 2318/2321 20004KT CAVOK
Impressum